This is the latest recevied weather packets stored in our database for station/object PU5FJO-13. If no packets are shown the sender has not sent any weather packets the latest 10 day(s).
| Time | Temp. | Humidity | Pressure | Rain* | Wind** | Luminosity | Snow |
|---|---|---|---|---|---|---|---|
| 1777637769 | 21.67° C | 76% | 1020.6 hPa | - | - | - | - |
| 1777637169 | 21.67° C | 78% | 1020.5 hPa | - | - | - | - |
| 1777636569 | 21.11° C | 78% | 1020.5 hPa | - | - | - | - |
| 1777635969 | 21.11° C | 80% | 1020.5 hPa | - | - | - | - |
| 1777635369 | 20.56° C | 82% | 1020.5 hPa | - | - | - | - |
| 1777634769 | 20° C | 83% | 1020.5 hPa | - | - | - | - |
| 1777634169 | 19.44° C | 84% | 1020.5 hPa | - | - | - | - |
| 1777633569 | 18.89° C | 85% | 1020.5 hPa | - | - | - | - |
| 1777632969 | 18.33° C | 86% | 1020.4 hPa | - | - | - | - |
| 1777632369 | 17.78° C | 84% | 1020.3 hPa | - | - | - | - |
| 1777631769 | 17.78° C | 81% | 1020.3 hPa | - | - | - | - |
| 1777631169 | 16.67° C | 84% | 1020.3 hPa | - | - | - | - |
| 1777630569 | 17.78° C | 79% | 1020.1 hPa | - | - | - | - |
| 1777629969 | 17.78° C | 78% | 1020.1 hPa | - | - | - | - |
| 1777629369 | 16.67° C | 82% | 1020.1 hPa | - | - | - | - |
| 1777628769 | 17.22° C | 80% | 1020 hPa | - | - | - | - |
| 1777628169 | 17.22° C | 78% | 1019.8 hPa | - | - | - | - |
| 1777627569 | 17.78° C | 76% | 1019.8 hPa | - | - | - | - |
| 1777626969 | 16.67° C | 80% | 1019.5 hPa | - | - | - | - |
| 1777626369 | 17.22° C | 81% | 1019.5 hPa | - | - | - | - |
| 1777625769 | 16.67° C | 82% | 1019.4 hPa | - | - | - | - |
| 1777625169 | 17.78° C | 78% | 1019.3 hPa | - | - | - | - |
| 1777624569 | 17.78° C | 77% | 1019.2 hPa | - | - | - | - |
| 1777623969 | 17.22° C | 79% | 1019.1 hPa | - | - | - | - |
| 1777623369 | 17.78° C | 78% | 1019 hPa | - | - | - | - |
* Rain since midnight (hover to see other rain measurements)
** Current wind speed in m/s (hover to see current wind gust speed)